Bobby Golding — WDH2183 — position and weather

sailwx.info

Track history (hours):
 
Tides and Currents Weather Stations Pressure Air Temp Water Temp Dewpoint Dewpoint Depression Visibility Wind Speed Wind Dir Waves Ship Positions

Bobby Golding

Owner: GOLDING BARGE LINE, INC, VICKSBURG, MS. More information available from US FCC via Universal Licensing System and Coast Guard Vessel Documentation Center.

Last reported at 2017-Sep-24 15:30 UTC. Time now 2017-Sep-24 15:39 UTC.
Position N 30°13' W 093°16'.

Length 208 m; draft 2.7 m.

Type: . MMSI: 367595180.

Date/timePositionNaut miles runAvg speedWind from/ knotsBaromVisibWave heightAir tempDewpointWater temp
2017-Sep-24 15:30N 30°13' W 093°16'0 0.0
2017-Sep-24 15:00N 30°13' W 093°16'0 0.0
2017-Sep-24 14:30N 30°13' W 093°16'0 0.0
2017-Sep-24 14:00N 30°13' W 093°16'0 0.0
2017-Sep-24 13:30N 30°13' W 093°16'0 0.0
2017-Sep-24 13:00N 30°13' W 093°16'0 0.0
2017-Sep-24 12:30N 30°13' W 093°16'0 0.0
2017-Sep-24 12:00N 30°13' W 093°16'0 0.0
2017-Sep-24 11:30N 30°13' W 093°16'0 0.0
2017-Sep-24 11:00N 30°13' W 093°16'0 0.0
2017-Sep-24 10:30N 30°13' W 093°16'0 0.0
2017-Sep-24 10:00N 30°13' W 093°16'0 0.0
2017-Sep-24 09:30N 30°13' W 093°16'0 0.0
2017-Sep-24 09:00N 30°13' W 093°16'0 0.0
2017-Sep-24 08:30N 30°13' W 093°16'0 0.0
2017-Sep-24 08:00N 30°13' W 093°16'0 0.0
2017-Sep-24 07:30N 30°13' W 093°16'0 0.0
2017-Sep-24 07:00N 30°13' W 093°16'0 0.0
2017-Sep-24 06:30N 30°13' W 093°16'0 0.0
2017-Sep-24 06:00N 30°13' W 093°16'0 0.0
2017-Sep-24 05:30N 30°13' W 093°16'0 0.0
2017-Sep-24 05:00N 30°13' W 093°16'0 0.0
2017-Sep-24 04:30N 30°13' W 093°16'0 0.0
2017-Sep-24 04:00N 30°13' W 093°16'0 0.0
2017-Sep-24 03:30N 30°13' W 093°16'0 0.0
2017-Sep-24 03:00N 30°13' W 093°16'0 0.0
2017-Sep-24 02:30N 30°13' W 093°16'0 0.0
2017-Sep-24 02:00N 30°13' W 093°16'0 0.0
2017-Sep-24 01:30N 30°13' W 093°16'0 0.1
2017-Sep-24 01:00N 30°13' W 093°16'0 0.0
2017-Sep-24 00:30N 30°13' W 093°16'0 0.0
2017-Sep-24 00:00N 30°13' W 093°16'0 0.0
2017-Sep-23 23:30N 30°13' W 093°16'0 0.0
2017-Sep-23 23:00N 30°13' W 093°16'0 0.0
2017-Sep-23 22:30N 30°13' W 093°16'0 0.0
2017-Sep-23 22:00N 30°13' W 093°16'0 0.0
2017-Sep-23 21:30N 30°13' W 093°16'0 0.0
2017-Sep-23 21:00N 30°13' W 093°16'0 0.0
2017-Sep-23 20:30N 30°13' W 093°16'0 0.0
2017-Sep-23 20:00N 30°13' W 093°16'  
2017-Sep-18 09:18N 30°03' W 093°44'1 4.8
2017-Sep-18 09:00N 30°03' W 093°42'2 4.4
2017-Sep-18 08:30N 30°04' W 093°40'2 4.4
2017-Sep-18 08:00N 30°04' W 093°37'2 4.5
2017-Sep-18 07:30N 30°04' W 093°35'2 4.3
2017-Sep-18 07:00N 30°04' W 093°32'2 4.3
2017-Sep-18 06:30N 30°04' W 093°30'2 3.2
2017-Sep-18 06:00N 30°04' W 093°28'2 4.2
2017-Sep-18 05:30N 30°04' W 093°26'2 4.1
2017-Sep-18 05:00N 30°04' W 093°23'2 3.6
2017-Sep-18 04:30N 30°04' W 093°21'2 3.2
2017-Sep-18 04:00N 30°05' W 093°20'1 2.5
2017-Sep-18 03:30N 30°06' W 093°19'1 2.1
2017-Sep-18 03:00N 30°06' W 093°18'2 3.1
2017-Sep-18 02:30N 30°05' W 093°17'2 4.3
2017-Sep-18 02:00N 30°03' W 093°16'2 4.2
2017-Sep-18 01:30N 30°01' W 093°14'2 4.6
2017-Sep-18 01:00N 29°59' W 093°13'2 4.8
2017-Sep-18 00:30N 29°57' W 093°11'43 4.3
2017-Sep-17 14:26N 29°51' W 092°21'2 3.8
2017-Sep-17 14:00N 29°50' W 092°19'1 2.4
2017-Sep-17 13:30N 29°50' W 092°18'2 3.3
2017-Sep-17 13:00N 29°49' W 092°17'2 3.3
2017-Sep-17 12:30N 29°48' W 092°15'2 3.4
2017-Sep-17 12:00N 29°48' W 092°13'2 3.7
2017-Sep-17 11:30N 29°47' W 092°11'2 4.7
2017-Sep-17 11:00N 29°47' W 092°09'2 4.5
2017-Sep-17 10:30N 29°48' W 092°06'2 4.1
2017-Sep-17 10:00N 29°48' W 092°04'59 4.0
2017-Sep-16 19:25N 29°36' W 090°58'4 4.8
2017-Sep-16 18:38N 29°33' W 090°55'1 5.3
2017-Sep-16 18:29N 29°33' W 090°54'3 5.0
2017-Sep-16 17:57N 29°32' W 090°51'2 5.3
2017-Sep-16 17:30N 29°32' W 090°48'2 4.9
2017-Sep-16 17:00N 29°33' W 090°46'2 4.5
2017-Sep-16 16:30N 29°34' W 090°44'2 4.1
2017-Sep-16 16:00N 29°36' W 090°43'1 2.3
2017-Sep-16 15:28N 29°37' W 090°42'0 0.1
2017-Sep-16 14:58N 29°37' W 090°42'1 1.5
2017-Sep-16 14:28N 29°36' W 090°41'2 3.6
2017-Sep-16 14:00N 29°36' W 090°39'2 3.8
2017-Sep-16 13:29N 29°35' W 090°37'2 4.2
2017-Sep-16 13:01N 29°35' W 090°35'2 4.0
2017-Sep-16 12:31N 29°34' W 090°33'5 3.4
2017-Sep-16 10:55N 29°33' W 090°27'  
Track history (hours):
 
Tides and Currents Weather Stations Pressure Air Temp Water Temp Dewpoint Dewpoint Depression Visibility Wind Speed Wind Dir Waves Ship Positions

Bobby Golding

Owner: GOLDING BARGE LINE, INC, VICKSBURG, MS. More information available from US FCC via Universal Licensing System and Coast Guard Vessel Documentation Center.

Last reported at 2017-Sep-24 15:30 UTC. Time now 2017-Sep-24 15:39 UTC.
Position N 30°13' W 093°16'.

Length 208 m; draft 2.7 m.

Type: . MMSI: 367595180.

Date/timePositionNaut miles runAvg speedWind from/ knotsBaromVisibWave heightAir tempDewpointWater temp
2017-Sep-24 15:30N 30°13' W 093°16'0 0.0
2017-Sep-24 15:00N 30°13' W 093°16'0 0.0
2017-Sep-24 14:30N 30°13' W 093°16'0 0.0
2017-Sep-24 14:00N 30°13' W 093°16'0 0.0
2017-Sep-24 13:30N 30°13' W 093°16'0 0.0
2017-Sep-24 13:00N 30°13' W 093°16'0 0.0
2017-Sep-24 12:30N 30°13' W 093°16'0 0.0
2017-Sep-24 12:00N 30°13' W 093°16'0 0.0
2017-Sep-24 11:30N 30°13' W 093°16'0 0.0
2017-Sep-24 11:00N 30°13' W 093°16'0 0.0
2017-Sep-24 10:30N 30°13' W 093°16'0 0.0
2017-Sep-24 10:00N 30°13' W 093°16'0 0.0
2017-Sep-24 09:30N 30°13' W 093°16'0 0.0
2017-Sep-24 09:00N 30°13' W 093°16'0 0.0
2017-Sep-24 08:30N 30°13' W 093°16'0 0.0
2017-Sep-24 08:00N 30°13' W 093°16'0 0.0
2017-Sep-24 07:30N 30°13' W 093°16'0 0.0
2017-Sep-24 07:00N 30°13' W 093°16'0 0.0
2017-Sep-24 06:30N 30°13' W 093°16'0 0.0
2017-Sep-24 06:00N 30°13' W 093°16'0 0.0
2017-Sep-24 05:30N 30°13' W 093°16'0 0.0
2017-Sep-24 05:00N 30°13' W 093°16'0 0.0
2017-Sep-24 04:30N 30°13' W 093°16'0 0.0
2017-Sep-24 04:00N 30°13' W 093°16'0 0.0
2017-Sep-24 03:30N 30°13' W 093°16'0 0.0
2017-Sep-24 03:00N 30°13' W 093°16'0 0.0
2017-Sep-24 02:30N 30°13' W 093°16'0 0.0
2017-Sep-24 02:00N 30°13' W 093°16'0 0.0
2017-Sep-24 01:30N 30°13' W 093°16'0 0.1
2017-Sep-24 01:00N 30°13' W 093°16'0 0.0
2017-Sep-24 00:30N 30°13' W 093°16'0 0.0
2017-Sep-24 00:00N 30°13' W 093°16'0 0.0
2017-Sep-23 23:30N 30°13' W 093°16'0 0.0
2017-Sep-23 23:00N 30°13' W 093°16'0 0.0
2017-Sep-23 22:30N 30°13' W 093°16'0 0.0
2017-Sep-23 22:00N 30°13' W 093°16'0 0.0
2017-Sep-23 21:30N 30°13' W 093°16'0 0.0
2017-Sep-23 21:00N 30°13' W 093°16'0 0.0
2017-Sep-23 20:30N 30°13' W 093°16'0 0.0
2017-Sep-23 20:00N 30°13' W 093°16'  
2017-Sep-18 09:18N 30°03' W 093°44'1 4.8
2017-Sep-18 09:00N 30°03' W 093°42'2 4.4
2017-Sep-18 08:30N 30°04' W 093°40'2 4.4
2017-Sep-18 08:00N 30°04' W 093°37'2 4.5
2017-Sep-18 07:30N 30°04' W 093°35'2 4.3
2017-Sep-18 07:00N 30°04' W 093°32'2 4.3
2017-Sep-18 06:30N 30°04' W 093°30'2 3.2
2017-Sep-18 06:00N 30°04' W 093°28'2 4.2
2017-Sep-18 05:30N 30°04' W 093°26'2 4.1
2017-Sep-18 05:00N 30°04' W 093°23'2 3.6
2017-Sep-18 04:30N 30°04' W 093°21'2 3.2
2017-Sep-18 04:00N 30°05' W 093°20'1 2.5
2017-Sep-18 03:30N 30°06' W 093°19'1 2.1
2017-Sep-18 03:00N 30°06' W 093°18'2 3.1
2017-Sep-18 02:30N 30°05' W 093°17'2 4.3
2017-Sep-18 02:00N 30°03' W 093°16'2 4.2
2017-Sep-18 01:30N 30°01' W 093°14'2 4.6
2017-Sep-18 01:00N 29°59' W 093°13'2 4.8
2017-Sep-18 00:30N 29°57' W 093°11'43 4.3
2017-Sep-17 14:26N 29°51' W 092°21'2 3.8
2017-Sep-17 14:00N 29°50' W 092°19'1 2.4
2017-Sep-17 13:30N 29°50' W 092°18'2 3.3
2017-Sep-17 13:00N 29°49' W 092°17'2 3.3
2017-Sep-17 12:30N 29°48' W 092°15'2 3.4
2017-Sep-17 12:00N 29°48' W 092°13'2 3.7
2017-Sep-17 11:30N 29°47' W 092°11'2 4.7
2017-Sep-17 11:00N 29°47' W 092°09'2 4.5
2017-Sep-17 10:30N 29°48' W 092°06'2 4.1
2017-Sep-17 10:00N 29°48' W 092°04'59 4.0
2017-Sep-16 19:25N 29°36' W 090°58'4 4.8
2017-Sep-16 18:38N 29°33' W 090°55'1 5.3
2017-Sep-16 18:29N 29°33' W 090°54'3 5.0
2017-Sep-16 17:57N 29°32' W 090°51'2 5.3
2017-Sep-16 17:30N 29°32' W 090°48'2 4.9
2017-Sep-16 17:00N 29°33' W 090°46'2 4.5
2017-Sep-16 16:30N 29°34' W 090°44'2 4.1
2017-Sep-16 16:00N 29°36' W 090°43'1 2.3
2017-Sep-16 15:28N 29°37' W 090°42'0 0.1
2017-Sep-16 14:58N 29°37' W 090°42'1 1.5
2017-Sep-16 14:28N 29°36' W 090°41'2 3.6
2017-Sep-16 14:00N 29°36' W 090°39'2 3.8
2017-Sep-16 13:29N 29°35' W 090°37'2 4.2
2017-Sep-16 13:01N 29°35' W 090°35'2 4.0
2017-Sep-16 12:31N 29°34' W 090°33'5 3.4
2017-Sep-16 10:55N 29°33' W 090°27'  

Dump ship's entire track history